createdAt,value
2019-05-29T00:00:10.207Z,2.10
2019-05-29T00:02:40.843Z,2.47
2019-05-29T00:05:12.196Z,2.10
2019-05-29T00:07:42.865Z,2.00
2019-05-29T00:10:14.366Z,2.17
2019-05-29T00:12:45.448Z,1.93
2019-05-29T00:15:15.855Z,1.70
2019-05-29T00:17:46.220Z,1.40
2019-05-29T00:20:16.615Z,1.60
2019-05-29T00:22:47.153Z,1.00
2019-05-29T00:25:18.866Z,1.20
2019-05-29T00:27:49.737Z,1.30
2019-05-29T00:30:20.137Z,0.90
2019-05-29T00:32:50.526Z,1.43
2019-05-29T00:35:20.926Z,1.07
2019-05-29T00:37:51.288Z,1.13
2019-05-29T00:40:21.702Z,1.50
2019-05-29T00:42:52.404Z,1.13
2019-05-29T00:45:22.775Z,1.23
2019-05-29T00:47:53.201Z,1.00
2019-05-29T00:50:23.539Z,1.00
2019-05-29T00:52:53.938Z,1.30
2019-05-29T00:55:24.673Z,0.90
2019-05-29T00:57:55.380Z,1.10
2019-05-29T01:00:25.776Z,1.07
2019-05-29T01:02:56.206Z,1.00
2019-05-29T01:05:26.717Z,0.90
2019-05-29T01:07:57.098Z,0.97
2019-05-29T01:10:27.492Z,0.90
2019-05-29T01:12:57.913Z,1.30
2019-05-29T01:15:28.259Z,0.97
2019-05-29T01:17:58.601Z,1.00
2019-05-29T01:20:29.005Z,1.50
2019-05-29T01:22:59.373Z,1.33
2019-05-29T01:25:30.019Z,1.00
2019-05-29T01:28:00.752Z,1.00
2019-05-29T01:30:31.131Z,1.10
2019-05-29T01:33:01.799Z,0.87
2019-05-29T01:35:32.600Z,1.27
2019-05-29T01:38:03.269Z,1.17
2019-05-29T01:40:33.627Z,0.90
2019-05-29T01:43:04.261Z,1.20
2019-05-29T01:45:34.656Z,1.10
2019-05-29T01:48:04.987Z,1.10
2019-05-29T01:50:35.712Z,0.90
2019-05-29T01:53:06.359Z,1.10
2019-05-29T01:55:36.746Z,1.00
2019-05-29T01:58:07.096Z,1.10
2019-05-29T02:00:37.453Z,0.90
2019-05-29T02:03:08.188Z,1.10
2019-05-29T02:05:38.626Z,0.90
2019-05-29T02:08:08.986Z,1.13
2019-05-29T02:10:39.330Z,0.97
2019-05-29T02:13:09.689Z,1.10
2019-05-29T02:15:40.541Z,0.90
2019-05-29T02:18:11.279Z,0.80
2019-05-29T02:20:41.915Z,1.10
2019-05-29T02:23:12.717Z,0.90
2019-05-29T02:25:43.077Z,1.40
2019-05-29T02:28:13.477Z,0.90
2019-05-29T02:30:43.830Z,1.07
2019-05-29T02:33:14.196Z,1.70
2019-05-29T02:35:44.575Z,1.00
2019-05-29T02:38:14.959Z,1.07
2019-05-29T02:40:45.375Z,1.20
2019-05-29T02:43:16.110Z,1.10
2019-05-29T02:45:54.473Z,1.33
2019-05-29T02:48:20.809Z,1.00
2019-05-29T02:50:51.582Z,1.07
2019-05-29T02:53:22.423Z,1.43
2019-05-29T02:55:52.774Z,1.60
2019-05-29T02:58:24.076Z,1.13
2019-05-29T03:00:55.868Z,1.30
2019-05-29T03:03:28.901Z,1.53
2019-05-29T03:05:58.777Z,1.47
2019-05-29T03:08:31.780Z,1.30
2019-05-29T03:11:01.855Z,1.57
2019-05-29T03:13:33.461Z,1.30
2019-05-29T03:16:12.983Z,1.73
2019-05-29T03:18:36.727Z,1.43
2019-05-29T03:21:07.139Z,1.47
2019-05-29T03:23:37.533Z,1.77
2019-05-29T03:26:07.874Z,1.43
2019-05-29T03:28:38.525Z,1.30
2019-05-29T03:31:09.394Z,1.50
2019-05-29T03:33:48.289Z,1.73
2019-05-29T03:36:11.919Z,1.10
2019-05-29T03:38:42.268Z,1.50
2019-05-29T03:41:12.629Z,1.40
2019-05-29T03:43:43.007Z,1.83
2019-05-29T03:46:29.870Z,2.33
2019-05-29T03:48:45.858Z,1.33
2019-05-29T03:51:16.572Z,1.40
2019-05-29T03:53:47.322Z,1.30
2019-05-29T03:56:17.688Z,1.67
2019-05-29T03:58:48.096Z,1.57
2019-05-29T04:01:18.470Z,1.30
2019-05-29T04:03:49.188Z,1.40
2019-05-29T04:06:19.587Z,1.70
2019-05-29T04:08:49.960Z,1.53
2019-05-29T04:11:20.336Z,1.70
2019-05-29T04:13:51.327Z,1.50
2019-05-29T04:16:21.739Z,1.52
2019-05-29T04:18:52.572Z,1.57
2019-05-29T04:21:22.938Z,1.60
2019-05-29T04:23:53.469Z,1.40
2019-05-29T04:26:25.610Z,1.50
2019-05-29T04:28:55.972Z,1.80
2019-05-29T04:31:28.106Z,1.50
2019-05-29T04:33:59.004Z,1.37
2019-05-29T04:36:30.767Z,1.50
2019-05-29T04:39:01.439Z,1.50
2019-05-29T04:41:32.770Z,1.60
2019-05-29T04:44:03.273Z,1.40
2019-05-29T04:46:34.131Z,1.20
2019-05-29T04:49:04.983Z,1.30
2019-05-29T04:51:37.164Z,1.73
2019-05-29T04:54:08.062Z,0.90
2019-05-29T04:56:39.115Z,1.47
2019-05-29T04:59:09.946Z,1.50
2019-05-29T05:01:40.322Z,1.70
2019-05-29T05:04:10.692Z,1.10
2019-05-29T05:06:41.065Z,1.67
2019-05-29T05:09:12.273Z,1.77
2019-05-29T05:11:42.648Z,1.17
2019-05-29T05:14:13.069Z,1.23
2019-05-29T05:16:43.437Z,1.47
2019-05-29T05:19:16.776Z,1.33
2019-05-29T05:21:46.559Z,1.63
2019-05-29T05:24:16.927Z,1.17
2019-05-29T05:26:47.788Z,1.30
2019-05-29T05:29:18.156Z,1.53
2019-05-29T05:31:49.029Z,0.90
2019-05-29T05:34:19.387Z,1.50
2019-05-29T05:36:49.734Z,1.57
2019-05-29T05:39:20.165Z,1.30
2019-05-29T05:41:50.602Z,1.47
2019-05-29T05:44:20.986Z,1.10
2019-05-29T05:46:51.917Z,1.50
2019-05-29T05:49:22.317Z,1.50
2019-05-29T05:51:52.665Z,1.00
2019-05-29T05:54:24.685Z,1.60
2019-05-29T05:56:55.201Z,1.60
2019-05-29T05:59:25.599Z,1.00
2019-05-29T06:01:56.315Z,1.70
2019-05-29T06:04:26.771Z,1.50
2019-05-29T06:06:57.488Z,1.10
2019-05-29T06:09:27.900Z,1.10
2019-05-29T06:11:58.230Z,1.03
2019-05-29T06:14:28.984Z,1.00
2019-05-29T06:16:59.750Z,1.00
2019-05-29T06:19:30.408Z,1.10
2019-05-29T06:22:01.088Z,1.20
2019-05-29T06:24:33.452Z,0.97
2019-05-29T06:27:03.786Z,1.20
2019-05-29T06:29:35.231Z,2.00
2019-05-29T06:32:05.721Z,1.20
2019-05-29T06:34:37.457Z,1.13
2019-05-29T06:37:07.950Z,1.07
2019-05-29T06:39:39.600Z,1.17
2019-05-29T06:42:10.320Z,1.30
2019-05-29T06:44:41.961Z,1.10
2019-05-29T06:47:12.906Z,1.10
2019-05-29T06:49:44.367Z,1.30
2019-05-29T06:52:14.955Z,1.20
2019-05-29T06:54:45.390Z,1.00
2019-05-29T06:57:15.727Z,1.30
2019-05-29T06:59:46.099Z,1.50
2019-05-29T07:02:16.468Z,1.03
2019-05-29T07:04:47.011Z,1.10
2019-05-29T07:07:17.348Z,1.67
2019-05-29T07:09:48.069Z,1.37
2019-05-29T07:12:18.450Z,0.80
2019-05-29T07:14:48.856Z,1.03
2019-05-29T07:17:19.511Z,1.10
2019-05-29T07:20:02.846Z,1.10
2019-05-29T07:22:21.976Z,1.67
2019-05-29T07:24:52.685Z,0.80
2019-05-29T07:27:23.364Z,0.80
2019-05-29T07:29:53.998Z,1.10
2019-05-29T07:32:24.402Z,1.70
2019-05-29T07:35:03.079Z,1.10
2019-05-29T07:37:26.869Z,1.10
2019-05-29T07:39:57.505Z,1.67
2019-05-29T07:42:27.914Z,1.10
2019-05-29T07:44:58.256Z,0.83
2019-05-29T07:47:28.654Z,1.10
2019-05-29T07:49:59.022Z,1.00
2019-05-29T07:52:29.459Z,1.00
2019-05-29T07:54:59.818Z,1.10
2019-05-29T07:57:30.471Z,0.93
2019-05-29T08:00:00.831Z,1.10
2019-05-29T08:02:31.479Z,0.80
2019-05-29T08:05:02.131Z,0.90
2019-05-29T08:07:33.103Z,1.30
2019-05-29T08:10:06.745Z,0.90
2019-05-29T08:12:41.673Z,0.93
2019-05-29T08:15:09.327Z,1.00
2019-05-29T08:17:40.004Z,1.20
2019-05-29T08:20:10.529Z,0.80
2019-05-29T08:22:42.280Z,1.30
2019-05-29T08:25:13.581Z,1.10
2019-05-29T08:27:44.716Z,0.93
2019-05-29T08:30:15.269Z,0.93
2019-05-29T08:32:46.919Z,1.03
2019-05-29T08:35:17.420Z,0.80
2019-05-29T08:37:49.129Z,1.63
2019-05-29T08:40:20.499Z,0.60
2019-05-29T08:42:51.470Z,0.83
2019-05-29T08:45:21.810Z,0.93
2019-05-29T08:47:52.465Z,0.90
2019-05-29T08:50:22.803Z,0.73
2019-05-29T08:52:53.578Z,0.90
2019-05-29T08:55:24.323Z,1.43
2019-05-29T08:57:54.726Z,1.03
2019-05-29T09:00:25.096Z,0.90
2019-05-29T09:02:55.523Z,0.87
2019-05-29T09:05:25.879Z,0.90
2019-05-29T09:07:59.312Z,0.83
2019-05-29T09:10:29.917Z,1.10
2019-05-29T09:13:04.677Z,0.90
2019-05-29T09:15:32.437Z,1.03
2019-05-29T09:18:03.263Z,0.80
2019-05-29T09:20:57.868Z,1.10
2019-05-29T09:23:05.992Z,1.00
2019-05-29T09:25:36.350Z,1.07
2019-05-29T09:28:18.357Z,0.80
2019-05-29T09:30:48.396Z,1.17
2019-05-29T09:33:21.320Z,1.83
2019-05-29T09:35:51.218Z,1.20
2019-05-29T09:38:22.921Z,1.00
2019-05-29T09:40:53.674Z,0.73
2019-05-29T09:43:29.713Z,1.00
2019-05-29T09:45:56.241Z,0.70
2019-05-29T09:48:28.612Z,0.90
2019-05-29T09:50:58.888Z,1.17
2019-05-29T09:53:29.521Z,0.93
2019-05-29T09:56:00.895Z,0.80
2019-05-29T09:58:31.584Z,1.00
2019-05-29T10:01:18.327Z,1.20
2019-05-29T10:03:34.832Z,0.90
2019-05-29T10:06:09.199Z,1.47
2019-05-29T10:08:37.759Z,1.10
2019-05-29T10:11:10.716Z,1.50
2019-05-29T10:13:40.919Z,0.90
2019-05-29T10:16:11.310Z,0.93
2019-05-29T10:18:41.805Z,0.80
2019-05-29T10:21:12.156Z,0.90
2019-05-29T10:23:42.497Z,1.03
2019-05-29T10:26:12.893Z,0.90
2019-05-29T10:28:55.775Z,1.20
2019-05-29T10:31:16.011Z,1.17
2019-05-29T10:33:48.270Z,1.00
2019-05-29T10:36:19.057Z,1.10
2019-05-29T10:38:50.718Z,0.90
2019-05-29T10:41:21.150Z,0.80
2019-05-29T10:43:53.265Z,0.93
2019-05-29T10:46:24.151Z,1.37
2019-05-29T10:48:56.670Z,1.13
2019-05-29T10:51:27.163Z,0.80
2019-05-29T10:53:59.132Z,1.07
2019-05-29T10:56:29.706Z,1.03
2019-05-29T10:59:00.360Z,1.40
2019-05-29T11:01:30.915Z,1.20
2019-05-29T11:04:01.252Z,1.00
2019-05-29T11:06:31.689Z,1.00
2019-05-29T11:09:02.023Z,0.90
2019-05-29T11:11:32.725Z,0.80
2019-05-29T11:14:03.092Z,1.10
2019-05-29T11:16:33.479Z,1.10
2019-05-29T11:19:03.912Z,0.80
2019-05-29T11:21:34.366Z,0.90
2019-05-29T11:24:05.329Z,0.80
2019-05-29T11:26:35.707Z,0.90
2019-05-29T11:29:06.240Z,0.93
2019-05-29T11:31:36.603Z,1.00
2019-05-29T11:34:07.260Z,0.73
2019-05-29T11:36:37.621Z,0.80
2019-05-29T11:39:09.791Z,0.80
2019-05-29T11:41:40.155Z,1.13
2019-05-29T11:44:10.515Z,0.90
2019-05-29T11:46:40.863Z,0.90
2019-05-29T11:49:11.233Z,1.03
2019-05-29T11:51:44.199Z,1.37
2019-05-29T11:54:14.130Z,1.83
2019-05-29T11:56:44.521Z,0.93
2019-05-29T11:59:14.886Z,0.90
2019-05-29T12:01:50.380Z,1.27
2019-05-29T12:04:25.908Z,1.07
2019-05-29T12:06:49.392Z,0.87
2019-05-29T12:09:31.879Z,0.90
2019-05-29T12:11:53.926Z,1.00
2019-05-29T12:14:24.811Z,0.87
2019-05-29T12:16:55.946Z,0.97
2019-05-29T12:19:26.401Z,1.40
2019-05-29T12:21:58.223Z,1.23
2019-05-29T12:24:28.756Z,1.27
2019-05-29T12:26:59.116Z,1.97
2019-05-29T12:29:29.806Z,0.90
2019-05-29T12:32:02.181Z,0.80
2019-05-29T12:34:32.620Z,1.60
2019-05-29T12:37:03.887Z,1.17
2019-05-29T12:39:34.409Z,1.37
2019-05-29T12:42:05.143Z,0.93
2019-05-29T12:44:35.483Z,0.90
2019-05-29T12:47:05.903Z,1.43
2019-05-29T12:49:36.519Z,0.90
2019-05-29T12:52:08.680Z,0.93
2019-05-29T12:54:38.983Z,0.90
2019-05-29T12:57:09.380Z,0.80
2019-05-29T12:59:41.739Z,1.77
2019-05-29T13:02:12.486Z,1.10
2019-05-29T13:05:06.253Z,0.80
2019-05-29T13:07:15.045Z,1.00
2019-05-29T13:09:45.446Z,1.20
2019-05-29T13:12:15.780Z,1.00
2019-05-29T13:14:46.128Z,0.97
2019-05-29T13:17:16.820Z,1.27
2019-05-29T13:19:47.153Z,1.40
2019-05-29T13:22:17.560Z,0.93
2019-05-29T13:24:48.342Z,1.00
2019-05-29T13:27:18.667Z,1.00
2019-05-29T13:29:49.139Z,1.20
2019-05-29T13:32:19.518Z,1.20
2019-05-29T13:34:49.900Z,0.90
2019-05-29T13:37:20.275Z,1.00
2019-05-29T13:39:50.615Z,1.10
2019-05-29T13:42:21.254Z,1.03
2019-05-29T13:44:52.091Z,1.40
2019-05-29T13:47:22.910Z,1.20
2019-05-29T13:50:13.131Z,1.10
2019-05-29T13:52:43.514Z,1.10
2019-05-29T13:55:14.214Z,1.17
2019-05-29T13:57:44.614Z,0.90
2019-05-29T14:00:32.495Z,0.97
2019-05-29T14:02:49.447Z,1.03
2019-05-29T14:05:20.392Z,1.90
2019-05-29T14:07:51.396Z,0.80
2019-05-29T14:10:22.063Z,1.27
2019-05-29T14:12:53.103Z,1.13
2019-05-29T14:15:23.845Z,0.90
2019-05-29T14:17:54.183Z,1.33
2019-05-29T14:20:24.564Z,0.97
2019-05-29T14:22:54.951Z,1.60
2019-05-29T14:25:25.363Z,0.83
2019-05-29T14:27:56.095Z,0.90
2019-05-29T14:30:26.498Z,0.93
2019-05-29T14:32:56.833Z,0.80
2019-05-29T14:35:27.217Z,0.97
2019-05-29T14:37:57.551Z,0.97
2019-05-29T14:40:27.985Z,1.13
2019-05-29T14:42:58.323Z,1.23
2019-05-29T14:45:28.762Z,0.90
2019-05-29T14:47:59.543Z,1.00
2019-05-29T14:50:29.912Z,1.00
2019-05-29T14:53:00.281Z,1.87
2019-05-29T14:55:30.722Z,1.20
2019-05-29T14:58:01.080Z,1.83
2019-05-29T15:00:31.806Z,1.17
2019-05-29T15:03:03.317Z,2.20
2019-05-29T15:05:33.894Z,2.20
2019-05-29T15:08:05.675Z,3.10
2019-05-29T15:10:36.259Z,1.10
2019-05-29T15:13:07.202Z,1.00
2019-05-29T15:15:38.709Z,1.53
2019-05-29T15:18:13.088Z,0.80
2019-05-29T15:20:41.132Z,1.00
2019-05-29T15:23:11.596Z,1.10
2019-05-29T15:25:41.986Z,0.90
2019-05-29T15:28:14.160Z,1.03
2019-05-29T15:30:45.177Z,1.30
2019-05-29T15:33:16.802Z,1.00
2019-05-29T15:35:47.294Z,1.10
2019-05-29T15:38:17.662Z,1.00
2019-05-29T15:40:48.266Z,1.00
2019-05-29T15:43:18.571Z,1.07
2019-05-29T15:45:49.219Z,1.20
2019-05-29T15:48:19.745Z,1.50
2019-05-29T15:50:50.128Z,1.10
2019-05-29T15:53:20.868Z,1.03
2019-05-29T15:55:51.294Z,1.03
2019-05-29T15:58:22.052Z,0.80
2019-05-29T16:00:52.855Z,0.90
2019-05-29T16:03:23.224Z,1.00
2019-05-29T16:05:54.539Z,0.90
2019-05-29T16:08:24.935Z,1.20
2019-05-29T16:10:55.603Z,1.03
2019-05-29T16:13:26.765Z,1.17
2019-05-29T16:15:57.134Z,0.90
2019-05-29T16:18:29.681Z,2.33
2019-05-29T16:20:59.856Z,6.80
2019-05-29T16:23:35.808Z,1.20
2019-05-29T16:26:02.882Z,1.10
2019-05-29T16:28:33.328Z,0.80
2019-05-29T16:31:03.661Z,0.90
2019-05-29T16:33:34.101Z,1.00
2019-05-29T16:36:04.467Z,0.90
2019-05-29T16:38:34.879Z,1.10
2019-05-29T16:41:05.458Z,0.97
2019-05-29T16:43:35.823Z,1.40
2019-05-29T16:46:06.534Z,1.20
2019-05-29T16:48:37.242Z,1.40
2019-05-29T16:51:07.620Z,0.80
2019-05-29T16:53:38.363Z,0.70
2019-05-29T16:56:08.726Z,1.20
2019-05-29T16:58:39.489Z,1.13
2019-05-29T17:01:09.852Z,1.00
2019-05-29T17:03:40.258Z,0.90
2019-05-29T17:06:10.592Z,0.87
2019-05-29T17:08:40.978Z,1.10
2019-05-29T17:11:11.710Z,0.77
2019-05-29T17:13:42.049Z,1.00
2019-05-29T17:16:12.426Z,1.57
2019-05-29T17:18:43.058Z,0.90
2019-05-29T17:21:14.437Z,1.00
2019-05-29T17:23:44.850Z,1.00
2019-05-29T17:26:16.726Z,0.70
2019-05-29T17:28:47.184Z,0.80
2019-05-29T17:31:18.851Z,0.90
2019-05-29T17:33:49.713Z,1.07
2019-05-29T17:36:21.085Z,1.03
2019-05-29T17:38:51.965Z,0.80
2019-05-29T17:41:23.263Z,0.90
2019-05-29T17:43:53.746Z,0.70
2019-05-29T17:46:24.114Z,1.00
2019-05-29T17:48:54.497Z,1.23
2019-05-29T17:51:26.085Z,0.90
2019-05-29T17:53:57.015Z,0.90
2019-05-29T17:56:36.292Z,0.90
2019-05-29T17:58:59.508Z,0.90
2019-05-29T18:01:30.966Z,0.80
2019-05-29T18:04:01.523Z,1.07
2019-05-29T18:06:31.901Z,1.00
2019-05-29T18:09:02.236Z,1.00
2019-05-29T18:11:32.997Z,0.70
2019-05-29T18:14:07.450Z,1.00
2019-05-29T18:16:35.478Z,1.20
2019-05-29T18:19:05.935Z,0.90
2019-05-29T18:21:36.254Z,1.70
2019-05-29T18:24:06.993Z,1.20
2019-05-29T18:26:46.868Z,1.10
2019-05-29T18:29:09.427Z,1.13
2019-05-29T18:31:40.053Z,0.77
2019-05-29T18:34:10.443Z,1.50
2019-05-29T18:36:40.813Z,0.80
2019-05-29T18:39:11.152Z,1.17
2019-05-29T18:41:41.576Z,1.10
2019-05-29T18:44:12.371Z,0.90
2019-05-29T18:46:42.728Z,0.70
2019-05-29T18:49:14.816Z,0.90
2019-05-29T18:51:45.177Z,1.23
2019-05-29T18:54:15.904Z,0.83
2019-05-29T18:57:13.033Z,1.23
2019-05-29T18:59:18.651Z,1.20
2019-05-29T19:01:49.314Z,0.73
2019-05-29T19:04:19.651Z,0.90
2019-05-29T19:06:50.055Z,0.90
2019-05-29T19:09:21.621Z,1.03
2019-05-29T19:11:52.489Z,1.43
2019-05-29T19:14:24.009Z,1.10
2019-05-29T19:16:55.197Z,0.90
2019-05-29T19:19:26.188Z,0.73
2019-05-29T19:21:56.672Z,1.07
2019-05-29T19:24:27.033Z,1.47
2019-05-29T19:26:57.831Z,0.90
2019-05-29T19:29:29.213Z,0.93
2019-05-29T19:32:00.131Z,1.17
2019-05-29T19:34:31.570Z,1.00
2019-05-29T19:37:02.727Z,1.20
2019-05-29T19:39:34.135Z,1.07
2019-05-29T19:42:05.000Z,1.20
2019-05-29T19:44:35.380Z,1.30
2019-05-29T19:47:05.799Z,1.20
2019-05-29T19:49:36.168Z,1.30
2019-05-29T19:52:06.917Z,1.60
2019-05-29T19:54:37.564Z,2.80
2019-05-29T19:57:08.299Z,1.10
2019-05-29T19:59:39.047Z,1.40
2019-05-29T20:02:09.413Z,1.53
2019-05-29T20:04:39.998Z,1.80
2019-05-29T20:07:10.353Z,1.73
2019-05-29T20:09:40.826Z,2.23
2019-05-29T20:12:11.223Z,2.13
2019-05-29T20:14:41.576Z,2.57
2019-05-29T20:17:11.955Z,2.53
2019-05-29T20:19:42.302Z,2.00
2019-05-29T20:22:12.668Z,2.00
2019-05-29T20:24:43.446Z,2.10
2019-05-29T20:27:14.162Z,2.60
2019-05-29T20:29:45.027Z,2.53
2019-05-29T20:32:15.475Z,1.87
2019-05-29T20:34:45.846Z,2.10
2019-05-29T20:37:16.595Z,2.27
2019-05-29T20:39:47.066Z,2.80
2019-05-29T20:42:17.435Z,2.13
2019-05-29T20:44:47.806Z,3.17
2019-05-29T20:47:18.152Z,2.47
2019-05-29T20:49:48.553Z,2.90
2019-05-29T20:52:18.893Z,3.27
2019-05-29T20:54:49.293Z,3.30
2019-05-29T20:57:19.634Z,3.27
2019-05-29T20:59:50.035Z,4.30
2019-05-29T21:02:20.370Z,3.73
2019-05-29T21:04:51.196Z,3.97
2019-05-29T21:07:21.611Z,4.37
2019-05-29T21:09:51.981Z,4.57
2019-05-29T21:12:22.796Z,4.67
2019-05-29T21:14:53.213Z,4.27
2019-05-29T21:17:23.846Z,5.20
2019-05-29T21:19:54.691Z,5.23
2019-05-29T21:22:25.346Z,5.20
2019-05-29T21:25:03.912Z,6.10
2019-05-29T21:27:28.622Z,6.37
2019-05-29T21:29:58.964Z,5.67
2019-05-29T21:32:29.365Z,4.67
2019-05-29T21:35:00.032Z,4.30
2019-05-29T21:37:30.685Z,4.00
2019-05-29T21:40:01.428Z,4.10
2019-05-29T21:42:31.792Z,3.20
2019-05-29T21:45:02.155Z,4.00
2019-05-29T21:47:32.522Z,2.70
2019-05-29T21:50:04.556Z,2.90
2019-05-29T21:52:34.918Z,3.10
2019-05-29T21:55:06.828Z,2.10
2019-05-29T22:01:19.740Z,2.97
2019-05-29T22:03:50.458Z,2.00
2019-05-29T22:06:20.838Z,2.37
2019-05-29T22:08:51.637Z,2.93
2019-05-29T22:11:22.245Z,2.30
2019-05-29T22:13:52.690Z,2.00
2019-05-29T22:16:23.070Z,2.30
2019-05-29T22:18:54.943Z,2.37
2019-05-29T22:21:25.424Z,2.50
2019-05-29T22:23:55.793Z,2.20
2019-05-29T22:26:26.180Z,2.47
2019-05-29T22:28:58.595Z,2.20
2019-05-29T22:31:29.137Z,2.97
2019-05-29T22:33:59.643Z,1.90
2019-05-29T22:36:30.507Z,2.23
2019-05-29T22:39:01.801Z,2.77
2019-05-29T22:41:32.606Z,2.17
2019-05-29T22:44:03.369Z,2.00
2019-05-29T22:46:33.779Z,2.80
2019-05-29T22:49:04.488Z,2.43
2019-05-29T22:51:34.881Z,2.10
2019-05-29T22:54:05.416Z,2.00
2019-05-29T22:56:35.754Z,3.10
2019-05-29T22:59:06.105Z,1.87
2019-05-29T23:01:36.457Z,2.57
2019-05-29T23:04:06.796Z,2.60
2019-05-29T23:06:37.530Z,2.43
2019-05-29T23:09:08.258Z,2.13
2019-05-29T23:11:38.618Z,2.20
2019-05-29T23:14:08.998Z,3.33
2019-05-29T23:16:39.450Z,2.60
2019-05-29T23:19:10.190Z,2.20
2019-05-29T23:21:41.238Z,1.80
2019-05-29T23:24:11.941Z,2.57
2019-05-29T23:26:42.300Z,2.07
2019-05-29T23:29:13.087Z,2.00
2019-05-29T23:31:43.718Z,2.47
2019-05-29T23:34:14.076Z,2.10
2019-05-29T23:36:44.506Z,2.30
2019-05-29T23:39:14.871Z,2.73
2019-05-29T23:41:45.705Z,2.60
2019-05-29T23:44:16.428Z,2.70
2019-05-29T23:46:47.129Z,2.33
2019-05-29T23:49:17.489Z,2.20
2019-05-29T23:51:48.297Z,2.70
2019-05-29T23:54:18.933Z,2.50
2019-05-29T23:56:49.260Z,2.60
2019-05-29T23:59:19.657Z,2.50
